Time;durP1;ratioP1;P1;durP2;ratioP2;P2;SDS_P1;SDS_P2;PMS_P1;PMS_P2;Temp;Humidity;BMP_temperature;BMP_pressure;BME280_temperature;BME280_humidity;BME280_pressure;Samples;Min_cycle;Max_cycle;Signal;HPM_P1;HPM_P2
2021/09/24 00:02:15;;;;;;;5.90;2.80;;;13.70;99.90;;;;;;4071898;35;20402;-62
2021/09/24 00:04:57;;;;;;;5.27;2.47;;;13.60;99.90;;;;;;4070313;35;20182;-61
2021/09/24 00:08:11;;;;;;;6.83;2.10;;;13.70;99.90;;;;;;4071943;35;20224;-62
2021/09/24 00:11:07;;;;;;;5.10;1.60;;;13.60;99.90;;;;;;4070358;35;20191;-62
2021/09/24 00:13:38;;;;;;;7.03;1.70;;;13.40;99.90;;;;;;4070248;35;20520;-62
2021/09/24 00:16:43;;;;;;;6.43;1.60;;;13.20;99.90;;;;;;4070161;35;20224;-62
2021/09/24 00:19:40;;;;;;;8.67;1.53;;;13.00;99.90;;;;;;4071390;35;20286;-62
2021/09/24 00:22:18;;;;;;;7.90;1.60;;;12.90;99.90;;;;;;4071465;35;20209;-62
2021/09/24 00:24:50;;;;;;;7.13;1.10;;;12.70;99.90;;;;;;4070305;35;20191;-63
2021/09/24 00:27:30;;;;;;;8.03;1.57;;;12.60;99.90;;;;;;4071443;35;20240;-63
2021/09/24 00:30:24;;;;;;;10.47;1.70;;;12.40;99.90;;;;;;4070011;35;20225;-63
2021/09/24 00:32:56;;;;;;;6.87;1.60;;;12.30;99.90;;;;;;4070107;35;20561;-63
2021/09/24 00:35:33;;;;;;;8.80;1.63;;;12.20;99.90;;;;;;4071443;35;20159;-63
2021/09/24 00:38:05;;;;;;;7.07;1.60;;;12.10;99.90;;;;;;4071332;35;20409;-63
2021/09/24 00:40:36;;;;;;;8.50;1.60;;;12.10;99.90;;;;;;4069851;35;20218;-63
2021/09/24 00:43:08;;;;;;;10.57;1.80;;;12.00;99.90;;;;;;4071408;35;20191;-63
2021/09/24 00:45:55;;;;;;;9.87;2.03;;;11.90;99.90;;;;;;4067475;35;20163;-63
2021/09/24 00:48:30;;;;;;;11.13;2.20;;;11.90;99.90;;;;;;4071053;35;20160;-64
2021/09/24 00:51:09;;;;;;;7.37;2.03;;;11.80;99.90;;;;;;4071260;35;20512;-64
2021/09/24 00:53:42;;;;;;;7.40;2.20;;;11.80;99.90;;;;;;4070769;35;20190;-63
2021/09/24 00:56:19;;;;;;;9.93;2.53;;;11.80;99.90;;;;;;4086233;35;20273;-64
2021/09/24 00:59:11;;;;;;;6.90;2.20;;;11.70;99.90;;;;;;4102003;34;20220;-64
2021/09/24 01:01:51;;;;;;;9.67;2.20;;;11.70;99.90;;;;;;4135474;34;20173;-63
2021/09/24 01:04:37;;;;;;;11.73;2.50;;;11.70;99.90;;;;;;4135781;34;20179;-64
2021/09/24 01:07:47;;;;;;;17.70;2.40;;;11.60;99.90;;;;;;4135894;34;20161;-64
2021/09/24 01:10:23;;;;;;;9.33;2.00;;;11.50;99.90;;;;;;4136770;34;20189;-64
2021/09/24 01:13:05;;;;;;;9.63;2.50;;;11.50;99.90;;;;;;4139041;34;20378;-64
2021/09/24 01:15:47;;;;;;;9.53;1.90;;;11.50;99.90;;;;;;4139845;34;20241;-64
2021/09/24 01:18:33;;;;;;;10.03;1.60;;;11.50;99.90;;;;;;4138218;34;20142;-64
2021/09/24 01:21:17;;;;;;;8.20;1.83;;;11.60;99.90;;;;;;4139820;34;20547;-65
2021/09/24 01:24:16;;;;;;;14.03;2.07;;;11.50;99.90;;;;;;4138364;34;20206;-63
2021/09/24 01:26:52;;;;;;;8.47;1.33;;;11.50;99.90;;;;;;4151093;34;20543;-63
2021/09/24 01:29:27;;;;;;;10.17;1.80;;;11.60;99.90;;;;;;4152633;34;20240;-64
2021/09/24 01:32:30;;;;;;;10.60;1.73;;;11.60;99.90;;;;;;4152984;34;20164;-64
2021/09/24 01:35:20;;;;;;;11.73;2.00;;;11.60;99.90;;;;;;4151280;34;20215;-64
2021/09/24 01:38:00;;;;;;;14.07;2.20;;;11.60;99.90;;;;;;4147067;34;20157;-65
2021/09/24 01:40:52;;;;;;;10.80;3.00;;;11.60;99.90;;;;;;4113185;34;20264;-63
2021/09/24 01:43:45;;;;;;;13.40;2.20;;;11.50;99.90;;;;;;4111432;35;20363;-63
2021/09/24 01:46:31;;;;;;;13.33;2.53;;;11.50;99.90;;;;;;4112905;35;20506;-64
2021/09/24 01:49:19;;;;;;;13.47;2.17;;;11.50;99.90;;;;;;4112430;35;20188;-64
2021/09/24 01:52:28;;;;;;;13.30;1.90;;;11.50;99.90;;;;;;4111147;35;20192;-64
2021/09/24 01:55:01;;;;;;;10.73;1.60;;;11.50;99.90;;;;;;4111095;35;20386;-64
2021/09/24 01:57:51;;;;;;;13.93;2.00;;;11.50;99.90;;;;;;4110944;35;20150;-64
2021/09/24 02:00:28;;;;;;;11.83;1.90;;;11.50;99.90;;;;;;4111455;35;20231;-63
2021/09/24 02:03:25;;;;;;;11.30;2.10;;;11.50;99.90;;;;;;4072882;35;20167;-63
2021/09/24 02:06:11;;;;;;;11.13;1.70;;;11.60;99.90;;;;;;4072969;35;20441;-64
2021/09/24 02:09:03;;;;;;;13.43;1.80;;;11.60;99.90;;;;;;4073021;35;20197;-64
2021/09/24 02:11:40;;;;;;;9.80;1.93;;;11.70;99.90;;;;;;4071008;35;20175;-63
2021/09/24 02:14:26;;;;;;;9.60;2.00;;;11.70;99.90;;;;;;4073280;35;20389;-63
2021/09/24 02:17:13;;;;;;;7.67;1.53;;;11.70;99.90;;;;;;4076047;35;20218;-63
2021/09/24 02:23:09;;;;;;;11.50;1.77;;;11.80;99.90;;;;;;4484528;31;20282;-63
2021/09/24 02:25:59;;;;;;;10.50;2.10;;;11.80;99.90;;;;;;4469622;32;20137;-64
2021/09/24 02:28:40;;;;;;;8.33;1.70;;;11.90;99.90;;;;;;4467953;32;20173;-64
2021/09/24 02:34:54;;;;;;;12.00;1.90;;;11.90;99.90;;;;;;4436031;32;20502;-63
2021/09/24 02:37:32;;;;;;;12.30;2.00;;;11.90;99.90;;;;;;4435885;32;20130;-64
2021/09/24 02:40:14;;;;;;;13.43;2.10;;;11.90;99.90;;;;;;4436403;32;20165;-63
2021/09/24 02:43:30;;;;;;;12.37;2.00;;;11.80;99.90;;;;;;4436122;32;20201;-63
2021/09/24 02:46:32;;;;;;;12.27;2.13;;;11.80;99.90;;;;;;4404118;32;20205;-64
2021/09/24 02:49:19;;;;;;;9.30;2.00;;;11.80;99.90;;;;;;4405804;32;20416;-64
2021/09/24 02:52:12;;;;;;;11.93;2.10;;;11.70;99.90;;;;;;4404386;32;20239;-63
2021/09/24 02:55:06;;;;;;;9.63;2.23;;;11.70;99.90;;;;;;4404885;32;20135;-63
2021/09/24 02:57:53;;;;;;;11.47;1.80;;;11.70;99.90;;;;;;4405741;32;20516;-63
2021/09/24 03:00:33;;;;;;;13.33;2.10;;;11.70;99.90;;;;;;4405185;32;20237;-63
2021/09/24 03:03:22;;;;;;;14.33;2.03;;;11.70;99.90;;;;;;4405278;32;20488;-63
2021/09/24 03:06:03;;;;;;;10.97;2.10;;;11.70;99.90;;;;;;4405300;32;20155;-63
2021/09/24 03:08:39;;;;;;;12.47;2.23;;;11.70;99.90;;;;;;4403428;32;20204;-63
2021/09/24 03:11:32;;;;;;;14.87;2.17;;;11.60;99.90;;;;;;4414680;32;20226;-64
2021/09/24 03:14:08;;;;;;;11.03;1.87;;;11.60;99.90;;;;;;4419155;32;20215;-63
2021/09/24 03:16:41;;;;;;;15.30;2.23;;;11.50;99.90;;;;;;4419363;32;20373;-64
2021/09/24 03:19:29;;;;;;;11.37;2.30;;;11.50;99.90;;;;;;4418496;32;20627;-63
2021/09/24 03:22:14;;;;;;;12.33;2.07;;;11.50;99.90;;;;;;4430677;32;20221;-63
2021/09/24 03:24:56;;;;;;;10.77;1.90;;;11.50;99.90;;;;;;4467161;32;20552;-63
2021/09/24 03:28:02;;;;;;;11.80;2.20;;;11.40;99.90;;;;;;4462470;32;20196;-63
2021/09/24 03:30:44;;;;;;;12.30;2.17;;;11.50;99.90;;;;;;4466868;32;20160;-63
2021/09/24 03:33:32;;;;;;;14.17;2.37;;;11.50;99.90;;;;;;4463869;32;20414;-63
2021/09/24 03:36:15;;;;;;;11.27;2.10;;;11.40;99.90;;;;;;4458069;32;20201;-63
2021/09/24 03:39:03;;;;;;;16.03;3.53;;;11.40;99.90;;;;;;4457137;32;20370;-64
2021/09/24 03:41:44;;;;;;;12.37;2.30;;;11.50;99.90;;;;;;4456385;32;20473;-64
2021/09/24 03:44:28;;;;;;;13.20;2.20;;;11.40;99.90;;;;;;4453657;32;20343;-64
2021/09/24 03:47:06;;;;;;;12.37;2.13;;;11.50;99.90;;;;;;4449285;32;20194;-63
2021/09/24 03:49:54;;;;;;;12.80;2.20;;;11.50;99.90;;;;;;4440428;32;20396;-63
2021/09/24 03:53:03;;;;;;;18.87;2.43;;;11.50;99.90;;;;;;4442104;32;20154;-64
2021/09/24 03:55:52;;;;;;;12.40;2.13;;;11.50;99.90;;;;;;4441996;32;20157;-64
2021/09/24 03:58:37;;;;;;;10.23;2.10;;;11.50;99.90;;;;;;4442427;32;20437;-64
2021/09/24 04:01:15;;;;;;;18.70;2.67;;;11.60;99.90;;;;;;4440427;32;20158;-64
2021/09/24 04:03:50;;;;;;;14.47;2.10;;;11.50;99.90;;;;;;4442219;32;20134;-65
2021/09/24 04:06:51;;;;;;;14.17;2.73;;;11.50;99.90;;;;;;4442268;32;20201;-65
2021/09/24 04:09:48;;;;;;;13.77;2.27;;;11.50;99.90;;;;;;4442392;32;20138;-64
2021/09/24 04:12:25;;;;;;;12.47;2.20;;;11.50;99.90;;;;;;4442393;32;20200;-63
2021/09/24 04:15:04;;;;;;;13.00;2.20;;;11.50;99.90;;;;;;4444472;32;20182;-63
2021/09/24 04:17:45;;;;;;;13.27;2.30;;;11.50;99.90;;;;;;4442557;32;20186;-64
2021/09/24 04:20:37;;;;;;;10.73;2.20;;;11.40;99.90;;;;;;4440590;32;20166;-64
2021/09/24 04:23:51;;;;;;;21.77;2.60;;;11.40;99.90;;;;;;4440006;32;20214;-64
2021/09/24 04:26:41;;;;;;;14.20;2.63;;;11.40;99.90;;;;;;4440432;32;20170;-63
2021/09/24 04:29:58;;;;;;;13.03;2.30;;;11.40;99.90;;;;;;4440538;32;20134;-63
2021/09/24 04:33:10;;;;;;;13.80;2.13;;;11.40;99.90;;;;;;4441745;32;20143;-63
2021/09/24 04:35:56;;;;;;;14.00;2.53;;;11.40;99.90;;;;;;4440055;32;20138;-63
2021/09/24 04:38:56;;;;;;;9.20;2.27;;;11.50;99.90;;;;;;4437424;32;20463;-63
2021/09/24 04:41:51;;;;;;;12.13;1.90;;;11.50;99.90;;;;;;4440679;32;20186;-63
2021/09/24 04:44:47;;;;;;;12.83;2.20;;;11.50;99.90;;;;;;4440673;32;20127;-64
2021/09/24 04:47:20;;;;;;;10.73;2.03;;;11.60;99.90;;;;;;4443075;32;20470;-64
2021/09/24 04:50:11;;;;;;;11.63;2.37;;;11.60;99.90;;;;;;4448188;32;20526;-65
2021/09/24 04:53:02;;;;;;;11.30;2.40;;;11.60;99.90;;;;;;4440295;32;20495;-64
2021/09/24 04:55:51;;;;;;;11.43;2.33;;;11.60;99.90;;;;;;4441020;32;20138;-63
2021/09/24 04:58:26;;;;;;;11.23;2.20;;;11.60;99.90;;;;;;4440229;32;20147;-66
2021/09/24 05:01:17;;;;;;;9.60;2.10;;;11.60;99.90;;;;;;4438867;32;20142;-64
2021/09/24 05:04:12;;;;;;;10.90;2.00;;;11.60;99.90;;;;;;4439264;32;20170;-64
2021/09/24 05:06:47;;;;;;;9.97;2.03;;;11.60;99.90;;;;;;4441269;32;20223;-63
2021/09/24 05:10:06;;;;;;;14.10;1.90;;;11.60;99.90;;;;;;4440486;32;20360;-64
2021/09/24 05:12:43;;;;;;;11.83;2.17;;;11.70;99.90;;;;;;4439775;32;20191;-64
2021/09/24 05:15:15;;;;;;;13.27;2.47;;;11.70;99.90;;;;;;4440810;32;20142;-64
2021/09/24 05:17:52;;;;;;;14.77;2.10;;;11.60;99.90;;;;;;4441115;32;20198;-64
2021/09/24 05:20:43;;;;;;;11.83;2.20;;;11.70;99.90;;;;;;4439283;32;20143;-63
2021/09/24 05:23:20;;;;;;;12.63;2.30;;;11.70;99.90;;;;;;4441167;32;20415;-63
2021/09/24 05:25:57;;;;;;;16.43;2.23;;;11.70;99.90;;;;;;4439177;32;20147;-64
2021/09/24 05:28:34;;;;;;;11.07;2.63;;;11.80;99.90;;;;;;4439245;32;20192;-64
2021/09/24 05:31:13;;;;;;;16.23;2.53;;;11.80;99.90;;;;;;4449119;32;20141;-64
2021/09/24 05:34:09;;;;;;;9.93;2.10;;;11.80;99.90;;;;;;4440632;32;20142;-64
2021/09/24 05:37:11;;;;;;;15.63;2.57;;;11.90;99.90;;;;;;4439136;32;20134;-64
2021/09/24 05:40:13;;;;;;;17.13;2.40;;;11.90;99.90;;;;;;4439053;32;20541;-63
2021/09/24 05:43:02;;;;;;;13.67;2.37;;;12.00;99.90;;;;;;4438736;32;20172;-64
2021/09/24 05:49:08;;;;;;;13.63;2.53;;;12.00;99.90;;;;;;4390900;32;20151;-63
2021/09/24 05:51:59;;;;;;;12.07;2.10;;;12.00;99.90;;;;;;4332593;33;20172;-64
2021/09/24 05:54:47;;;;;;;14.03;2.70;;;12.00;99.90;;;;;;4333333;33;20415;-63
2021/09/24 05:57:37;;;;;;;17.73;3.00;;;12.00;99.90;;;;;;4331196;33;20168;-63
2021/09/24 06:00:24;;;;;;;13.80;2.60;;;12.00;99.90;;;;;;4333322;33;20149;-63
2021/09/24 06:03:20;;;;;;;11.50;2.33;;;12.00;99.90;;;;;;4332263;33;20429;-64
2021/09/24 06:06:20;;;;;;;14.20;2.70;;;12.00;99.90;;;;;;4303191;33;20574;-64
2021/09/24 06:09:12;;;;;;;13.70;2.80;;;12.10;99.90;;;;;;4302274;33;20189;-63
2021/09/24 06:12:04;;;;;;;15.63;2.93;;;12.30;99.90;;;;;;4302441;33;20219;-65
2021/09/24 06:14:40;;;;;;;14.50;2.30;;;12.20;99.90;;;;;;4303176;33;20292;-64
2021/09/24 06:17:28;;;;;;;12.03;2.50;;;12.20;99.90;;;;;;4300194;33;20141;-64
2021/09/24 06:20:17;;;;;;;11.23;2.33;;;12.10;99.90;;;;;;4296092;33;20177;-63
2021/09/24 06:23:04;;;;;;;13.17;2.50;;;12.10;99.90;;;;;;4302849;33;20173;-64
2021/09/24 06:25:54;;;;;;;13.67;2.13;;;12.20;99.90;;;;;;4313264;33;20252;-63
2021/09/24 06:28:36;;;;;;;10.47;2.07;;;12.20;99.90;;;;;;4331011;33;20286;-64
2021/09/24 06:31:14;;;;;;;11.20;2.83;;;12.30;99.90;;;;;;4333093;33;20588;-64
2021/09/24 06:34:17;;;;;;;10.80;2.30;;;12.40;99.90;;;;;;4331851;33;20137;-64
2021/09/24 06:37:06;;;;;;;13.70;2.43;;;12.40;99.90;;;;;;4359289;32;20170;-64
2021/09/24 06:39:40;;;;;;;13.90;2.20;;;12.40;99.90;;;;;;4392409;32;20249;-63
2021/09/24 06:42:43;;;;;;;11.80;2.27;;;12.30;99.90;;;;;;4390826;32;20147;-63
2021/09/24 06:45:32;;;;;;;14.27;2.77;;;12.30;99.90;;;;;;4392439;32;20209;-63
2021/09/24 06:48:04;;;;;;;16.63;2.80;;;12.20;99.90;;;;;;4410716;32;20460;-63
2021/09/24 06:50:41;;;;;;;18.07;2.40;;;12.40;99.90;;;;;;4438227;32;20188;-63
2021/09/24 06:53:24;;;;;;;12.77;2.73;;;12.40;99.90;;;;;;4440451;32;20154;-65
2021/09/24 06:56:05;;;;;;;18.93;2.50;;;12.50;99.90;;;;;;4440156;32;20147;-65
2021/09/24 06:59:00;;;;;;;14.57;2.53;;;12.50;99.90;;;;;;4438319;32;20139;-65
2021/09/24 07:01:33;;;;;;;16.67;2.60;;;12.60;99.90;;;;;;4438255;32;20206;-66
2021/09/24 07:04:18;;;;;;;16.43;2.37;;;12.60;99.90;;;;;;4438084;32;20177;-65
2021/09/24 07:07:04;;;;;;;15.57;2.77;;;12.70;99.90;;;;;;4440077;32;20161;-65
2021/09/24 07:09:52;;;;;;;14.73;2.63;;;12.80;99.90;;;;;;4442332;32;20203;-64
2021/09/24 07:12:37;;;;;;;16.80;2.63;;;12.80;99.90;;;;;;4443259;32;20202;-66
2021/09/24 07:15:23;;;;;;;17.40;2.63;;;12.80;99.90;;;;;;4441099;32;20134;-66
2021/09/24 07:18:03;;;;;;;11.10;2.30;;;12.90;99.90;;;;;;4441361;32;20139;-65
2021/09/24 07:24:01;;;;;;;14.53;2.97;;;12.90;99.90;;;;;;4409783;32;20199;-66
2021/09/24 07:26:59;;;;;;;14.70;2.70;;;13.10;99.90;;;;;;4407252;32;20159;-65
2021/09/24 07:29:33;;;;;;;12.67;2.63;;;13.10;99.90;;;;;;4410010;32;20226;-65
2021/09/24 07:32:31;;;;;;;14.90;2.90;;;13.10;99.90;;;;;;4408773;32;20215;-66
2021/09/24 07:35:08;;;;;;;13.67;2.37;;;13.10;99.90;;;;;;4407926;32;20147;-66
2021/09/24 07:38:02;;;;;;;9.13;2.10;;;13.20;99.90;;;;;;4349864;33;20161;-66
2021/09/24 07:41:00;;;;;;;11.53;2.37;;;13.30;99.90;;;;;;4350016;33;20366;-67
2021/09/24 07:43:29;;;;;;;13.73;2.80;;;13.30;99.90;;;;;;4349307;33;20207;-66
2021/09/24 07:46:10;;;;;;;13.43;2.60;;;13.30;99.90;;;;;;4349655;33;20151;-66
2021/09/24 07:49:05;;;;;;;11.87;2.57;;;13.30;99.90;;;;;;4347793;33;20172;-65
2021/09/24 07:51:44;;;;;;;11.13;2.57;;;13.30;99.90;;;;;;4349439;33;20219;-65
2021/09/24 07:54:28;;;;;;;11.80;2.13;;;13.30;99.90;;;;;;4348710;33;20152;-65
2021/09/24 07:56:58;;;;;;;10.03;2.27;;;13.50;99.90;;;;;;4348143;33;20480;-64
2021/09/24 07:59:33;;;;;;;10.70;2.53;;;13.70;99.90;;;;;;4350064;32;20141;-65
2021/09/24 08:02:15;;;;;;;11.90;2.47;;;13.80;99.90;;;;;;4394045;32;20443;-65
2021/09/24 08:04:51;;;;;;;10.93;2.40;;;13.80;99.90;;;;;;4392391;32;20535;-66
2021/09/24 08:10:38;;;;;;;9.73;2.47;;;14.00;99.90;;;;;;4393658;32;20395;-65
2021/09/24 08:13:11;;;;;;;10.90;2.33;;;14.30;99.90;;;;;;4381915;32;20439;-66
2021/09/24 08:15:56;;;;;;;13.13;2.90;;;14.50;99.90;;;;;;4429884;32;20138;-66
2021/09/24 08:18:46;;;;;;;9.63;2.40;;;14.70;99.90;;;;;;4441335;32;20161;-64
2021/09/24 08:21:25;;;;;;;8.13;2.40;;;14.90;99.90;;;;;;4441668;32;20215;-65
2021/09/24 08:24:04;;;;;;;10.47;2.40;;;15.30;99.90;;;;;;4441994;32;20138;-63
2021/09/24 08:26:42;;;;;;;9.53;3.07;;;15.40;99.90;;;;;;4438967;32;20154;-67
2021/09/24 08:29:28;;;;;;;11.17;2.40;;;15.70;99.90;;;;;;4442156;32;20139;-66
2021/09/24 08:32:37;;;;;;;13.07;2.30;;;15.80;99.90;;;;;;4441960;32;20397;-67
2021/09/24 08:35:12;;;;;;;10.97;2.23;;;15.90;99.90;;;;;;4441832;32;20164;-65
2021/09/24 08:38:02;;;;;;;8.40;2.00;;;15.80;99.90;;;;;;4439743;32;20154;-65
2021/09/24 08:40:36;;;;;;;9.90;2.20;;;15.80;99.90;;;;;;4441702;32;20192;-65
2021/09/24 08:43:15;;;;;;;9.30;2.47;;;15.80;99.90;;;;;;4439418;32;20138;-66
2021/09/24 08:46:08;;;;;;;10.07;2.43;;;15.50;99.90;;;;;;4441135;32;20146;-65
2021/09/24 08:48:48;;;;;;;9.90;2.50;;;15.40;99.90;;;;;;4441395;32;20396;-64
2021/09/24 08:51:36;;;;;;;8.67;2.47;;;15.30;99.90;;;;;;4440910;32;20162;-66
2021/09/24 08:54:25;;;;;;;9.47;2.20;;;15.40;99.90;;;;;;4441026;32;20218;-66
2021/09/24 08:56:59;;;;;;;9.37;2.40;;;15.80;99.90;;;;;;4441412;32;20190;-66
2021/09/24 08:59:54;;;;;;;9.20;2.30;;;16.00;99.90;;;;;;4441455;32;20187;-66
2021/09/24 09:02:56;;;;;;;7.63;2.40;;;16.20;99.90;;;;;;4440924;32;20261;-65
2021/09/24 09:05:53;;;;;;;10.93;2.40;;;15.90;99.90;;;;;;4439290;32;20477;-65
2021/09/24 09:08:42;;;;;;;7.03;2.30;;;16.30;99.90;;;;;;4441340;32;20203;-66
2021/09/24 09:11:24;;;;;;;9.03;2.27;;;16.60;99.90;;;;;;4441159;32;20211;-65
2021/09/24 09:14:09;;;;;;;11.67;2.33;;;16.80;99.90;;;;;;4441336;32;20156;-65
2021/09/24 09:16:43;;;;;;;7.73;2.13;;;16.60;99.90;;;;;;4441301;32;20169;-66
2021/09/24 09:19:27;;;;;;;8.07;2.10;;;16.60;99.90;;;;;;4440214;32;20163;-64
2021/09/24 09:22:22;;;;;;;9.03;2.30;;;16.70;99.90;;;;;;4439960;32;20166;-66
2021/09/24 09:25:40;;;;;;;10.03;2.20;;;17.40;99.90;;;;;;4441314;32;20138;-65
2021/09/24 09:29:14;;;;;;;9.47;2.57;;;17.80;99.90;;;;;;4391703;32;20594;-65
2021/09/24 09:32:07;;;;;;;8.30;2.00;;;17.80;99.90;;;;;;4392721;32;20392;-65
2021/09/24 09:34:53;;;;;;;9.47;2.77;;;16.90;99.90;;;;;;4392056;32;20140;-65
2021/09/24 09:37:33;;;;;;;8.67;2.10;;;17.10;99.90;;;;;;4392968;32;20203;-66
2021/09/24 09:40:15;;;;;;;9.60;2.40;;;17.20;99.90;;;;;;4393037;32;20139;-65
2021/09/24 09:43:03;;;;;;;10.07;2.27;;;17.40;99.90;;;;;;4393056;32;20421;-66
2021/09/24 09:45:48;;;;;;;8.53;1.87;;;16.80;99.90;;;;;;4391424;32;20178;-65
2021/09/24 09:48:32;;;;;;;7.20;2.23;;;16.70;99.90;;;;;;4391100;32;20178;-65
2021/09/24 09:51:28;;;;;;;7.90;1.93;;;16.60;99.90;;;;;;4389989;32;20178;-66
2021/09/24 09:53:54;;;;;;;8.37;2.00;;;16.40;99.90;;;;;;4392510;32;20147;-65
2021/09/24 09:56:49;;;;;;;6.43;1.80;;;16.30;99.90;;;;;;4393030;32;20144;-66
2021/09/24 09:59:37;;;;;;;6.63;1.90;;;16.00;99.90;;;;;;4392916;32;20480;-65
2021/09/24 10:02:17;;;;;;;8.87;3.03;;;16.00;99.90;;;;;;4416804;32;20142;-64
2021/09/24 10:05:25;;;;;;;9.20;1.90;;;16.20;99.90;;;;;;4439501;32;20417;-65
2021/09/24 10:08:31;;;;;;;8.10;2.10;;;16.70;99.90;;;;;;4439275;32;20197;-65
2021/09/24 10:11:13;;;;;;;7.20;1.53;;;16.90;99.90;;;;;;4440391;32;20184;-66
2021/09/24 10:14:18;;;;;;;8.87;2.13;;;17.00;99.90;;;;;;4438011;32;20210;-65
2021/09/24 10:16:50;;;;;;;7.30;1.80;;;17.60;99.90;;;;;;4440426;32;20209;-65
2021/09/24 10:19:20;;;;;;;6.23;1.90;;;18.50;99.90;;;;;;4438757;32;20204;-65
2021/09/24 10:22:04;;;;;;;3.80;1.50;;;19.00;99.90;;;;;;4439341;32;20189;-66
2021/09/24 10:24:40;;;;;;;4.97;1.60;;;18.80;99.90;;;;;;4437711;32;20568;-65
2021/09/24 10:27:44;;;;;;;5.27;1.70;;;18.70;99.90;;;;;;4440530;32;20160;-66
2021/09/24 10:30:35;;;;;;;6.10;1.67;;;18.50;99.90;;;;;;4438649;32;20174;-67
2021/09/24 10:33:38;;;;;;;6.60;1.83;;;18.70;99.90;;;;;;4438499;32;20500;-66
2021/09/24 10:36:40;;;;;;;7.73;1.93;;;19.00;99.90;;;;;;4375177;32;20476;-64
2021/09/24 10:39:36;;;;;;;7.63;1.67;;;19.50;99.90;;;;;;4377678;32;20410;-65
2021/09/24 10:42:28;;;;;;;4.73;1.30;;;19.80;99.90;;;;;;4331053;33;20180;-65
2021/09/24 10:45:14;;;;;;;6.53;1.40;;;19.80;99.90;;;;;;4335850;33;20168;-66
2021/09/24 10:48:02;;;;;;;5.80;1.43;;;19.50;99.90;;;;;;4334268;33;20152;-66
2021/09/24 10:50:54;;;;;;;5.63;1.40;;;19.20;99.90;;;;;;4334201;33;20148;-65
2021/09/24 10:53:46;;;;;;;6.10;1.40;;;18.40;99.90;;;;;;4334710;33;20291;-65
2021/09/24 10:56:25;;;;;;;4.27;1.20;;;18.80;99.90;;;;;;4333693;33;20208;-65
2021/09/24 10:59:33;;;;;;;2.63;1.33;;;18.50;99.90;;;;;;4333640;33;20184;-64
2021/09/24 11:02:39;;;;;;;6.93;1.60;;;17.80;99.90;;;;;;4333218;33;20461;-64
2021/09/24 11:09:01;;;;;;;5.90;1.33;;;19.30;99.90;;;;;;4305259;33;20181;-65
2021/09/24 11:11:54;;;;;;;3.00;1.17;;;18.60;99.90;;;;;;4304471;33;20176;-65
2021/09/24 11:14:37;;;;;;;4.27;1.20;;;18.20;99.90;;;;;;4379015;32;20178;-65
2021/09/24 11:18:03;;;;;;;4.47;1.33;;;17.60;99.90;;;;;;4379775;32;20175;-65
2021/09/24 11:20:47;;;;;;;6.50;1.43;;;17.20;99.90;;;;;;4377998;32;20159;-65
2021/09/24 11:23:40;;;;;;;5.00;1.43;;;16.90;99.90;;;;;;4377560;32;20152;-65
2021/09/24 11:26:40;;;;;;;5.33;1.37;;;16.80;99.90;;;;;;4377768;32;20147;-66
2021/09/24 11:29:22;;;;;;;6.00;1.60;;;17.00;99.90;;;;;;4379619;32;20179;-65
2021/09/24 11:32:24;;;;;;;5.07;1.80;;;17.30;99.90;;;;;;4378232;32;20136;-65
2021/09/24 11:35:33;;;;;;;6.80;1.73;;;17.40;99.90;;;;;;4318476;33;20185;-63
2021/09/24 11:38:27;;;;;;;7.03;1.90;;;17.40;99.90;;;;;;4319858;33;20160;-67
2021/09/24 11:41:09;;;;;;;7.30;1.80;;;17.40;99.90;;;;;;4318593;33;20495;-65
2021/09/24 11:43:58;;;;;;;5.93;1.90;;;17.40;99.90;;;;;;4318568;33;20483;-65
2021/09/24 11:46:39;;;;;;;6.97;1.87;;;17.40;99.90;;;;;;4376275;32;20143;-65
2021/09/24 11:49:28;;;;;;;9.10;2.10;;;17.30;99.90;;;;;;4394296;32;20234;-65
2021/09/24 11:52:11;;;;;;;6.97;2.40;;;16.90;99.90;;;;;;4394798;32;20470;-65
2021/09/24 11:54:49;;;;;;;7.33;2.00;;;17.10;99.90;;;;;;4441507;32;20147;-66
2021/09/24 11:57:39;;;;;;;8.40;2.10;;;17.50;99.90;;;;;;4439915;32;20401;-65
2021/09/24 12:00:31;;;;;;;8.07;2.00;;;17.10;99.90;;;;;;4441420;32;20154;-65
2021/09/24 12:03:18;;;;;;;10.50;2.20;;;16.70;99.90;;;;;;4441910;32;20514;-66
2021/09/24 12:06:10;;;;;;;7.93;2.00;;;16.50;99.90;;;;;;4440247;32;20172;-65
2021/09/24 12:08:53;;;;;;;9.10;1.90;;;16.80;99.90;;;;;;4440718;32;20392;-65
2021/09/24 12:12:03;;;;;;;6.60;1.70;;;17.30;99.90;;;;;;4442178;32;20137;-66
2021/09/24 12:15:06;;;;;;;5.43;1.70;;;17.80;99.90;;;;;;4440588;32;20351;-65
2021/09/24 12:17:56;;;;;;;8.80;1.83;;;19.00;99.90;;;;;;4440100;32;20589;-65
2021/09/24 12:20:31;;;;;;;6.40;1.70;;;20.10;99.90;;;;;;4440239;32;20178;-65
2021/09/24 12:23:09;;;;;;;6.83;1.60;;;21.40;99.90;;;;;;4439432;32;20229;-65
2021/09/24 12:26:08;;;;;;;7.37;1.60;;;21.60;99.90;;;;;;4439682;32;20503;-65
2021/09/24 12:29:28;;;;;;;5.93;1.60;;;21.20;99.90;;;;;;4440729;32;20171;-65
2021/09/24 12:32:17;;;;;;;5.70;1.40;;;20.00;99.90;;;;;;4441630;32;20166;-65
2021/09/24 12:35:14;;;;;;;7.87;1.77;;;18.90;99.90;;;;;;4441786;32;20154;-66
2021/09/24 12:38:00;;;;;;;4.27;1.40;;;18.50;99.90;;;;;;4441033;32;20173;-66
2021/09/24 12:40:43;;;;;;;4.20;1.30;;;18.60;99.90;;;;;;4441522;32;20173;-65
2021/09/24 12:43:16;;;;;;;4.80;1.50;;;18.80;99.90;;;;;;4441481;32;20135;-65
2021/09/24 12:46:03;;;;;;;6.93;1.50;;;19.30;99.90;;;;;;4441782;32;20199;-65
2021/09/24 12:48:56;;;;;;;3.73;1.40;;;19.70;99.90;;;;;;4441566;32;20502;-65
2021/09/24 12:51:45;;;;;;;5.10;1.40;;;20.00;99.90;;;;;;4439694;32;20159;-65
2021/09/24 12:54:26;;;;;;;8.33;1.60;;;19.30;99.90;;;;;;4441431;32;20135;-64
2021/09/24 12:57:17;;;;;;;5.90;1.60;;;19.10;99.90;;;;;;4441308;32;20161;-66
2021/09/24 12:59:56;;;;;;;9.07;1.70;;;18.60;99.90;;;;;;4441625;32;20476;-65
2021/09/24 13:02:28;;;;;;;8.67;1.77;;;18.20;99.90;;;;;;4440981;32;20178;-65
2021/09/24 13:05:27;;;;;;;5.73;1.83;;;18.20;99.90;;;;;;4438892;32;20234;-64
2021/09/24 13:08:35;;;;;;;6.60;1.80;;;18.10;99.90;;;;;;4438437;32;20209;-64
2021/09/24 13:11:22;;;;;;;4.03;1.60;;;17.40;99.90;;;;;;4441391;32;20196;-65
2021/09/24 13:13:53;;;;;;;6.03;1.90;;;17.40;99.90;;;;;;4439515;32;20127;-65
2021/09/24 13:16:35;;;;;;;6.03;1.83;;;17.20;99.90;;;;;;4439318;32;20479;-65
2021/09/24 13:19:15;;;;;;;6.73;2.00;;;17.00;99.90;;;;;;4439122;32;20164;-63
2021/09/24 13:21:55;;;;;;;10.87;2.10;;;16.90;99.90;;;;;;4440157;32;20171;-64
2021/09/24 13:24:42;;;;;;;5.33;1.60;;;17.00;99.90;;;;;;4440127;32;20154;-65
2021/09/24 13:27:20;;;;;;;9.37;1.73;;;17.00;99.90;;;;;;4440711;32;20154;-65
2021/09/24 13:30:03;;;;;;;6.83;1.60;;;17.10;99.90;;;;;;4440761;32;20146;-65
2021/09/24 13:32:39;;;;;;;6.67;1.50;;;17.10;99.90;;;;;;4438937;32;20165;-65
2021/09/24 13:35:15;;;;;;;5.53;1.63;;;17.00;99.90;;;;;;4440781;32;20194;-66
2021/09/24 13:37:47;;;;;;;10.57;1.70;;;17.00;99.90;;;;;;4438737;32;20180;-66
2021/09/24 13:40:25;;;;;;;7.07;1.80;;;17.00;99.90;;;;;;4440509;32;20187;-65
2021/09/24 13:42:58;;;;;;;8.70;1.90;;;17.10;99.90;;;;;;4438163;32;20193;-65
2021/09/24 13:45:40;;;;;;;5.87;1.90;;;17.10;99.90;;;;;;4440772;32;20135;-64
2021/09/24 13:48:10;;;;;;;6.67;2.00;;;16.90;99.90;;;;;;4438952;32;20165;-65
2021/09/24 13:50:55;;;;;;;6.00;1.63;;;16.80;99.90;;;;;;4440665;32;20205;-65
2021/09/24 13:53:40;;;;;;;6.40;1.90;;;16.70;99.90;;;;;;4440607;32;20407;-65
2021/09/24 13:56:26;;;;;;;7.63;1.70;;;16.70;99.90;;;;;;4440751;32;20134;-65
2021/09/24 13:59:10;;;;;;;6.97;2.40;;;16.80;99.90;;;;;;4440366;32;20181;-66
2021/09/24 14:01:42;;;;;;;5.00;1.70;;;16.80;99.90;;;;;;4439185;32;20176;-65
2021/09/24 14:04:22;;;;;;;6.73;1.63;;;16.90;99.90;;;;;;4438874;32;20134;-65
2021/09/24 14:07:35;;;;;;;8.40;1.73;;;16.90;99.90;;;;;;4438299;32;20170;-64
2021/09/24 14:10:10;;;;;;;9.30;2.10;;;16.90;99.90;;;;;;4439822;32;20138;-65
2021/09/24 14:12:53;;;;;;;7.00;1.77;;;16.90;99.90;;;;;;4438797;32;20138;-65
2021/09/24 14:15:34;;;;;;;7.27;1.70;;;16.90;99.90;;;;;;4440151;32;20134;-66
2021/09/24 14:18:12;;;;;;;7.80;1.47;;;16.80;99.90;;;;;;4440143;32;20177;-64
2021/09/24 14:20:50;;;;;;;8.50;2.30;;;16.60;99.90;;;;;;4438493;32;20216;-65
2021/09/24 14:23:32;;;;;;;7.67;1.60;;;16.40;99.90;;;;;;4438606;32;20186;-65
2021/09/24 14:26:11;;;;;;;9.83;1.80;;;16.50;99.90;;;;;;4438636;32;20537;-66
2021/09/24 14:28:47;;;;;;;5.03;1.60;;;16.50;99.90;;;;;;4438451;32;20544;-65
2021/09/24 14:31:31;;;;;;;12.53;2.10;;;16.50;99.90;;;;;;4438886;32;20139;-65
2021/09/24 14:34:12;;;;;;;8.37;2.00;;;16.50;99.90;;;;;;4438528;32;20514;-65
2021/09/24 14:36:55;;;;;;;9.37;1.97;;;16.50;99.90;;;;;;4438959;32;20170;-65
2021/09/24 14:39:28;;;;;;;9.43;2.00;;;16.70;99.90;;;;;;4438169;32;20134;-65
2021/09/24 14:42:03;;;;;;;7.10;1.80;;;16.90;99.90;;;;;;4437940;32;20135;-65
2021/09/24 14:44:40;;;;;;;8.13;1.67;;;17.10;99.90;;;;;;4438248;32;20154;-65